Time;durP1;ratioP1;P1;durP2;ratioP2;P2;SDS_P1;SDS_P2;PMS_P1;PMS_P2;Temp;Humidity;BMP_temperature;BMP_pressure;BME280_temperature;BME280_humidity;BME280_pressure;Samples;Min_cycle;Max_cycle;Signal;HPM_P1;HPM_P2
2023/09/08 00:03:53;;;;;;;3.55;2.92;;;;;;;19.57;59.53;100559.19;10296916;28;20054;-63
2023/09/08 00:08:54;;;;;;;6.00;2.95;;;;;;;19.52;59.79;100561.75;10300062;28;20108;-63
2023/09/08 00:13:56;;;;;;;4.75;3.30;;;;;;;19.46;59.96;100561.84;10293864;28;20053;-63
2023/09/08 00:19:00;;;;;;;6.47;2.83;;;;;;;19.42;60.02;100562.28;10296156;28;20042;-63
2023/09/08 00:24:01;;;;;;;9.07;3.45;;;;;;;19.35;60.08;100564.28;10291925;28;20053;-63
2023/09/08 00:29:03;;;;;;;7.22;3.22;;;;;;;19.26;60.42;100568.38;10294969;28;20109;-63
2023/09/08 00:34:06;;;;;;;4.20;2.72;;;;;;;19.20;60.42;100561.13;10295401;28;20507;-63
2023/09/08 00:39:08;;;;;;;4.68;2.80;;;;;;;19.17;60.70;100551.50;10296525;28;20038;-63
2023/09/08 00:44:11;;;;;;;5.07;3.28;;;;;;;19.16;60.82;100547.09;10294308;28;20405;-64
2023/09/08 00:49:12;;;;;;;3.97;3.35;;;;;;;19.14;60.84;100549.22;10300845;28;20133;-63
2023/09/08 00:54:15;;;;;;;3.95;3.13;;;;;;;19.11;60.81;100536.03;10292378;28;20774;-63
2023/09/08 00:59:16;;;;;;;5.05;3.78;;;;;;;18.99;61.11;100541.41;10295825;28;20546;-63
2023/09/08 01:04:18;;;;;;;5.70;3.30;;;;;;;18.90;61.57;100537.34;10299160;28;20050;-63
2023/09/08 01:09:20;;;;;;;6.68;3.70;;;;;;;18.92;61.54;100545.31;10301312;28;20038;-63
2023/09/08 01:14:21;;;;;;;5.07;3.70;;;;;;;18.90;61.59;100545.53;10308998;28;20045;-64
2023/09/08 01:19:23;;;;;;;3.83;3.10;;;;;;;18.77;61.83;100548.34;10306597;28;20057;-63
2023/09/08 01:24:52;;;;;;;7.72;3.30;;;;;;;18.72;62.17;100550.91;10290727;28;20065;-63
2023/09/08 01:29:54;;;;;;;8.32;3.25;;;;;;;18.72;62.13;100550.91;10306495;28;20065;-63
2023/09/08 01:34:58;;;;;;;6.63;3.40;;;;;;;18.68;62.21;100555.13;10300613;28;20065;-63
2023/09/08 01:40:00;;;;;;;6.38;2.70;;;;;;;18.63;62.30;100555.81;10303565;28;20081;-63
2023/09/08 01:45:01;;;;;;;5.07;3.00;;;;;;;18.59;62.05;100539.09;10307620;28;20043;-63
2023/09/08 01:50:03;;;;;;;5.45;3.47;;;;;;;18.56;62.19;100541.44;10303571;28;20051;-63
2023/09/08 01:55:05;;;;;;;6.35;2.80;;;;;;;18.48;62.25;100539.00;10304498;28;20532;-63
2023/09/08 02:00:07;;;;;;;5.93;3.08;;;;;;;18.40;62.30;100545.56;10304900;28;20132;-63
2023/09/08 02:05:09;;;;;;;4.80;3.30;;;;;;;18.29;62.49;100547.13;10301968;28;20043;-63
2023/09/08 02:10:11;;;;;;;4.28;2.53;;;;;;;18.19;62.72;100539.44;10307120;28;20069;-63
2023/09/08 02:15:12;;;;;;;6.70;2.85;;;;;;;18.19;62.48;100533.19;10304353;28;20157;-63
2023/09/08 02:20:14;;;;;;;6.35;3.38;;;;;;;18.12;62.73;100538.66;10304315;28;20046;-62
2023/09/08 02:25:15;;;;;;;4.47;2.92;;;;;;;18.09;62.60;100530.97;10302434;28;20053;-63
2023/09/08 02:30:17;;;;;;;5.07;2.60;;;;;;;18.06;62.91;100536.00;10305726;28;20519;-63
2023/09/08 02:35:18;;;;;;;5.00;3.38;;;;;;;18.03;62.92;100548.16;10298827;28;20057;-63
2023/09/08 02:40:20;;;;;;;7.15;2.95;;;;;;;17.96;63.00;100540.03;10299998;28;20054;-62
2023/09/08 02:45:21;;;;;;;3.85;2.95;;;;;;;17.92;62.98;100538.81;10298478;28;20658;-62
2023/09/08 02:50:23;;;;;;;5.68;2.97;;;;;;;17.92;63.01;100541.53;10305533;28;20122;-63
2023/09/08 02:55:24;;;;;;;4.28;2.85;;;;;;;17.90;63.00;100538.19;10303452;28;20119;-63
2023/09/08 03:00:27;;;;;;;5.40;3.15;;;;;;;17.84;63.18;100536.34;10301120;28;20055;-62
2023/09/08 03:05:28;;;;;;;5.20;2.80;;;;;;;17.81;63.08;100540.34;10302830;28;20047;-63
2023/09/08 03:10:30;;;;;;;6.90;3.00;;;;;;;17.79;63.23;100541.56;10288561;28;20436;-62
2023/09/08 03:15:31;;;;;;;8.85;3.45;;;;;;;17.76;63.32;100536.59;10297213;28;20043;-63
2023/09/08 03:20:33;;;;;;;5.10;3.30;;;;;;;17.72;63.26;100540.81;10295976;28;20050;-62
2023/09/08 03:25:34;;;;;;;6.68;3.40;;;;;;;17.67;63.44;100548.78;10298315;28;20089;-61
2023/09/08 03:30:36;;;;;;;4.03;3.60;;;;;;;17.65;63.30;100538.09;10302764;28;20038;-66
2023/09/08 03:35:37;;;;;;;4.70;2.65;;;;;;;17.59;63.44;100541.69;10300160;28;20042;-61
2023/09/08 03:40:38;;;;;;;5.40;3.53;;;;;;;17.53;63.62;100529.81;10302083;28;20042;-62
2023/09/08 03:45:41;;;;;;;5.55;3.05;;;;;;;17.50;63.78;100532.16;10302473;28;20069;-62
2023/09/08 03:50:45;;;;;;;4.63;2.50;;;;;;;17.45;63.72;100533.59;10298735;28;20058;-62
2023/09/08 03:55:46;;;;;;;3.75;2.83;;;;;;;17.38;63.79;100532.00;10296598;28;20149;-60
2023/09/08 04:00:47;;;;;;;4.63;3.15;;;;;;;17.34;64.21;100544.34;10300563;28;20054;-61
2023/09/08 04:05:49;;;;;;;5.63;3.33;;;;;;;17.28;64.08;100548.75;10301668;28;20050;-60
2023/09/08 04:10:50;;;;;;;4.47;3.20;;;;;;;17.29;64.26;100546.88;10295067;28;20054;-60
2023/09/08 04:15:52;;;;;;;7.22;3.08;;;;;;;17.28;64.15;100542.47;10290987;28;20080;-61
2023/09/08 04:20:53;;;;;;;4.38;3.20;;;;;;;17.24;64.09;100548.34;10304723;28;20440;-61
2023/09/08 04:25:55;;;;;;;5.72;3.00;;;;;;;17.21;64.16;100556.91;10297519;28;20074;-62
2023/09/08 04:30:56;;;;;;;4.40;2.83;;;;;;;17.19;64.45;100556.31;10298136;28;20061;-61
2023/09/08 04:35:58;;;;;;;3.75;2.40;;;;;;;17.15;64.33;100560.50;10300675;28;20053;-66
2023/09/08 04:40:59;;;;;;;5.95;3.13;;;;;;;17.16;64.41;100558.59;10307357;28;20126;-66
2023/09/08 04:46:03;;;;;;;6.75;3.55;;;;;;;17.15;64.39;100565.94;10306394;28;20121;-67
2023/09/08 04:51:04;;;;;;;5.97;3.72;;;;;;;17.16;64.40;100564.91;10307876;28;20095;-67
2023/09/08 04:56:06;;;;;;;4.05;3.40;;;;;;;17.18;64.25;100578.25;10301887;28;20111;-66
2023/09/08 05:01:07;;;;;;;5.30;3.38;;;;;;;17.19;64.32;100578.03;10309986;28;20050;-67
2023/09/08 05:06:08;;;;;;;8.85;3.45;;;;;;;17.18;64.46;100579.09;10304423;28;20499;-67
2023/09/08 05:11:10;;;;;;;6.13;3.03;;;;;;;17.18;64.56;100576.38;10305717;28;20046;-67
2023/09/08 05:16:12;;;;;;;4.22;3.30;;;;;;;17.22;64.53;100580.34;10306103;28;20058;-67
2023/09/08 05:21:14;;;;;;;8.50;3.83;;;;;;;17.25;64.66;100593.47;10305525;28;20065;-67
2023/09/08 05:26:15;;;;;;;5.32;3.13;;;;;;;17.34;64.49;100591.38;10304036;28;20145;-67
2023/09/08 05:31:17;;;;;;;7.97;3.75;;;;;;;17.39;64.47;100583.41;10304064;28;20053;-67
2023/09/08 05:36:18;;;;;;;6.50;3.47;;;;;;;17.42;64.51;100591.13;10305196;28;20419;-68
2023/09/08 05:41:20;;;;;;;8.75;3.80;;;;;;;17.46;65.02;100594.25;10305701;28;20396;-67
2023/09/08 05:46:21;;;;;;;7.57;3.88;;;;;;;17.54;64.59;100585.03;10301942;28;20047;-73
2023/09/08 05:51:23;;;;;;;6.00;3.85;;;;;;;17.59;65.00;100596.06;10306432;28;20051;-69
2023/09/08 05:56:30;;;;;;;7.28;3.70;;;;;;;17.60;65.11;100601.28;10312614;28;20046;-67
2023/09/08 06:01:32;;;;;;;5.75;3.60;;;;;;;17.75;65.02;100605.59;10297021;28;20520;-69
2023/09/08 06:06:34;;;;;;;10.13;4.05;;;;;;;17.85;65.03;100606.00;10290938;28;20134;-67
2023/09/08 06:11:35;;;;;;;6.55;4.05;;;;;;;17.93;65.27;100602.19;10303136;28;20054;-66
2023/09/08 06:16:37;;;;;;;6.72;3.45;;;;;;;18.15;64.97;100600.00;10295661;28;20495;-69
2023/09/08 06:21:39;;;;;;;7.55;4.88;;;;;;;18.31;64.91;100593.16;10308566;28;20185;-68
2023/09/08 06:26:42;;;;;;;5.75;4.35;;;;;;;18.53;64.75;100599.06;10309312;28;20062;-67
2023/09/08 06:31:44;;;;;;;6.40;4.25;;;;;;;18.72;64.68;100594.47;10296785;28;20603;-69
2023/09/08 06:36:45;;;;;;;4.47;3.42;;;;;;;18.89;64.54;100594.78;10295560;28;20065;-69
2023/09/08 06:41:47;;;;;;;4.75;3.70;;;;;;;19.06;64.44;100590.41;10311092;28;20101;-69
2023/09/08 06:46:48;;;;;;;3.85;3.20;;;;;;;19.23;64.25;100590.63;10299645;28;20053;-68
2023/09/08 06:51:49;;;;;;;6.30;3.65;;;;;;;19.40;64.02;100597.13;10302565;28;20043;-67
2023/09/08 06:56:51;;;;;;;8.38;3.65;;;;;;;19.56;63.93;100594.84;10304971;28;20054;-66
2023/09/08 07:01:52;;;;;;;6.68;3.08;;;;;;;19.68;63.87;100597.63;10303195;28;20046;-66
2023/09/08 07:06:54;;;;;;;5.88;3.03;;;;;;;19.87;63.68;100599.31;10301999;28;20054;-67
2023/09/08 07:11:56;;;;;;;5.90;3.28;;;;;;;20.14;63.34;100591.56;10297764;28;20046;-66
2023/09/08 07:16:58;;;;;;;4.90;3.20;;;;;;;20.38;63.33;100599.81;10306517;28;20043;-67
2023/09/08 07:21:59;;;;;;;5.57;2.78;;;;;;;20.58;62.71;100586.63;10301884;28;20066;-66
2023/09/08 07:27:02;;;;;;;7.45;2.88;;;;;;;20.84;62.21;100590.00;10297378;28;20053;-66
2023/09/08 07:32:04;;;;;;;5.97;3.03;;;;;;;21.06;62.15;100586.66;10302646;28;20054;-67
2023/09/08 07:37:05;;;;;;;4.13;2.80;;;;;;;21.31;62.01;100583.66;10299982;28;20125;-66
2023/09/08 07:42:08;;;;;;;4.80;2.50;;;;;;;21.51;61.14;100586.81;10299715;28;20043;-67
2023/09/08 07:47:09;;;;;;;3.30;2.40;;;;;;;21.76;60.54;100585.66;10295684;28;20054;-66
2023/09/08 07:52:11;;;;;;;5.22;2.22;;;;;;;21.98;59.56;100581.16;10302422;28;20500;-66
2023/09/08 07:57:12;;;;;;;5.07;2.47;;;;;;;22.19;58.98;100584.25;10303425;28;20038;-66
2023/09/08 08:02:14;;;;;;;4.55;2.80;;;;;;;22.46;58.65;100589.13;10303800;28;20462;-66
2023/09/08 08:07:15;;;;;;;8.35;3.70;;;;;;;22.67;58.00;100582.88;10297512;28;20050;-67
2023/09/08 08:12:17;;;;;;;5.88;2.45;;;;;;;22.76;57.49;100581.34;10295999;28;20588;-66
2023/09/08 08:17:19;;;;;;;6.60;2.50;;;;;;;23.03;56.75;100582.59;10302797;28;20049;-66
2023/09/08 08:22:21;;;;;;;4.00;2.25;;;;;;;23.24;56.47;100589.16;10283202;28;20053;-67
2023/09/08 08:27:23;;;;;;;3.13;2.30;;;;;;;23.53;56.04;100593.38;10300910;28;20074;-66
2023/09/08 08:32:25;;;;;;;2.63;2.05;;;;;;;23.73;54.79;100578.22;10304211;28;20049;-67
2023/09/08 08:37:27;;;;;;;4.57;2.10;;;;;;;23.99;54.45;100581.28;10297584;28;20054;-66
2023/09/08 08:42:32;;;;;;;4.20;2.28;;;;;;;24.12;53.76;100578.94;10298894;28;20054;-67
2023/09/08 08:47:34;;;;;;;5.25;2.72;;;;;;;24.40;52.87;100573.41;10301291;28;20407;-66
2023/09/08 08:52:36;;;;;;;2.65;2.20;;;;;;;24.64;52.19;100579.38;10302910;28;20170;-66
2023/09/08 08:57:41;;;;;;;3.78;2.00;;;;;;;24.80;52.16;100583.88;10306366;28;20042;-66
2023/09/08 09:02:43;;;;;;;6.28;2.60;;;;;;;24.99;51.51;100576.03;10300357;28;20514;-66
2023/09/08 09:07:50;;;;;;;4.38;2.15;;;;;;;25.27;50.50;100572.06;10301241;28;20396;-66
2023/09/08 09:12:52;;;;;;;3.58;2.13;;;;;;;25.58;50.24;100585.13;10303162;28;20105;-66
2023/09/08 09:18:06;;;;;;;3.38;2.28;;;;;;;25.77;49.42;100571.66;10296377;28;20401;-65
2023/09/08 09:23:09;;;;;;;4.40;2.20;;;;;;;25.98;49.00;100565.13;10296973;28;20047;-64
2023/09/08 09:28:11;;;;;;;2.88;2.15;;;;;;;26.15;48.25;100564.88;10306284;28;20042;-63
2023/09/08 09:33:13;;;;;;;3.53;2.40;;;;;;;26.33;47.55;100568.19;10304026;28;20045;-64
2023/09/08 09:38:14;;;;;;;3.88;2.35;;;;;;;26.53;46.93;100565.41;10306148;28;20411;-63
2023/09/08 09:43:16;;;;;;;3.58;2.15;;;;;;;26.68;46.33;100561.84;10303126;28;20580;-63
2023/09/08 09:48:19;;;;;;;2.53;1.80;;;;;;;26.85;45.51;100567.03;10305111;28;20047;-64
2023/09/08 09:53:22;;;;;;;2.97;1.88;;;;;;;27.02;45.15;100558.47;10294467;28;20482;-63
2023/09/08 09:58:24;;;;;;;3.67;1.90;;;;;;;27.16;44.68;100556.75;10310024;28;20499;-64
2023/09/08 10:03:26;;;;;;;4.15;2.15;;;;;;;27.32;44.22;100557.53;10304163;28;20051;-64
2023/09/08 10:08:28;;;;;;;5.32;2.70;;;;;;;27.47;43.72;100554.69;10307002;28;20050;-63
2023/09/08 10:13:33;;;;;;;3.28;2.55;;;;;;;27.74;43.60;100553.44;10298409;28;20138;-64
2023/09/08 10:18:35;;;;;;;2.95;2.40;;;;;;;28.08;42.71;100545.22;10306353;28;20495;-63
2023/09/08 10:23:40;;;;;;;3.53;2.72;;;;;;;28.35;42.45;100543.88;10306274;28;20043;-65
2023/09/08 10:28:43;;;;;;;10.85;2.33;;;;;;;28.73;41.95;100543.25;10301314;28;20110;-64
2023/09/08 10:33:45;;;;;;;3.10;1.90;;;;;;;29.22;40.70;100531.91;10301977;28;20038;-65
2023/09/08 10:38:49;;;;;;;4.60;2.22;;;;;;;29.78;39.89;100535.03;10301743;28;20384;-66
2023/09/08 10:44:00;;;;;;;4.68;2.42;;;;;;;30.32;39.19;100524.50;10306525;28;20049;-64
2023/09/08 10:49:04;;;;;;;5.90;2.45;;;;;;;30.80;37.67;100532.47;10299205;28;20038;-63
2023/09/08 10:54:06;;;;;;;4.68;1.95;;;;;;;31.17;37.26;100520.34;10295819;28;20068;-64
2023/09/08 10:59:07;;;;;;;1.88;1.73;;;;;;;31.52;35.79;100514.38;10301092;28;20050;-63
2023/09/08 11:04:10;;;;;;;2.13;1.92;;;;;;;31.86;35.95;100513.00;10298398;28;20074;-64
2023/09/08 11:09:12;;;;;;;3.08;1.63;;;;;;;31.89;35.39;100507.63;10304949;28;20053;-65
2023/09/08 11:14:14;;;;;;;3.17;1.95;;;;;;;32.15;34.36;100507.84;10300781;28;20045;-65
2023/09/08 11:19:15;;;;;;;6.28;2.38;;;;;;;32.28;34.57;100502.50;10299335;28;20042;-64
2023/09/08 11:24:18;;;;;;;6.63;2.10;;;;;;;32.51;34.87;100498.53;10291161;28;20050;-65
2023/09/08 11:29:19;;;;;;;2.17;1.80;;;;;;;32.62;34.62;100495.50;10298335;28;20081;-63
2023/09/08 11:34:21;;;;;;;4.75;2.00;;;;;;;32.83;34.12;100491.00;10298275;28;20046;-64
2023/09/08 11:39:26;;;;;;;5.55;2.10;;;;;;;32.94;33.86;100480.38;10296513;28;20042;-63
2023/09/08 11:44:27;;;;;;;7.97;1.90;;;;;;;33.26;34.32;100481.13;10295202;28;20054;-65
2023/09/08 11:49:41;;;;;;;2.97;1.85;;;;;;;33.30;33.65;100474.56;10294597;28;20043;-70
2023/09/08 11:54:43;;;;;;;1.98;1.58;;;;;;;33.30;33.24;100471.78;10296457;28;20104;-66
2023/09/08 12:00:07;;;;;;;3.50;1.77;;;;;;;33.34;33.11;100474.75;10301520;28;20429;-66
2023/09/08 12:05:28;;;;;;;3.22;1.88;;;;;;;33.38;32.88;100470.16;10284047;28;20038;-61
2023/09/08 12:10:37;;;;;;;5.10;1.98;;;;;;;33.37;33.14;100474.06;10301783;28;20043;-61
2023/09/08 12:15:43;;;;;;;1.92;1.52;;;;;;;33.30;32.82;100463.44;10299197;28;20049;-61
2023/09/08 12:20:45;;;;;;;2.50;1.95;;;;;;;33.27;33.54;100461.28;10299760;28;20933;-61
2023/09/08 12:25:47;;;;;;;4.95;1.85;;;;;;;33.17;33.28;100461.59;10295627;28;20058;-60
2023/09/08 12:30:49;;;;;;;2.38;1.55;;;;;;;33.23;32.46;100457.50;10302593;28;20054;-61
2023/09/08 12:35:53;;;;;;;2.75;1.67;;;;;;;33.76;30.92;100461.16;10310751;28;20136;-62
2023/09/08 12:40:54;;;;;;;8.60;2.50;;;;;;;33.69;31.33;100466.41;10293852;28;20101;-60
2023/09/08 12:45:56;;;;;;;5.07;1.63;;;;;;;33.65;31.92;100457.06;10296104;28;20059;-60
2023/09/08 12:50:58;;;;;;;4.32;1.52;;;;;;;33.63;31.46;100439.84;10283848;28;20047;-63
2023/09/08 12:55:59;;;;;;;3.70;1.50;;;;;;;33.63;31.87;100445.41;10296382;28;20062;-65
2023/09/08 13:01:01;;;;;;;5.25;1.92;;;;;;;33.58;32.10;100443.59;10298214;28;20051;-66
2023/09/08 13:06:02;;;;;;;4.43;1.40;;;;;;;33.62;32.05;100436.22;10307715;28;20042;-65
2023/09/08 13:11:04;;;;;;;3.05;1.90;;;;;;;33.78;31.98;100434.56;10307861;28;20074;-66
2023/09/08 13:16:06;;;;;;;2.22;1.55;;;;;;;33.84;31.65;100426.03;10300779;28;20741;-65
2023/09/08 13:21:07;;;;;;;3.70;1.42;;;;;;;33.83;30.51;100427.16;10303568;28;20565;-62
2023/09/08 13:26:08;;;;;;;2.50;1.40;;;;;;;33.62;30.57;100419.50;10303663;28;20495;-63
2023/09/08 13:31:10;;;;;;;2.80;1.25;;;;;;;33.63;31.27;100412.78;10305628;28;20066;-65
2023/09/08 13:36:12;;;;;;;2.42;1.30;;;;;;;33.82;30.43;100412.41;10302897;28;20138;-65
2023/09/08 13:41:13;;;;;;;2.67;1.77;;;;;;;34.04;30.51;100402.19;10299071;28;20065;-65
2023/09/08 13:46:14;;;;;;;2.90;1.25;;;;;;;34.14;29.84;100399.91;10302252;28;23229;-64
2023/09/08 13:51:17;;;;;;;1.95;1.30;;;;;;;34.29;28.82;100394.91;10303408;28;20046;-65
2023/09/08 13:56:21;;;;;;;1.60;1.20;;;;;;;34.41;28.37;100397.78;10310077;28;20507;-68
2023/09/08 14:01:28;;;;;;;1.77;1.42;;;;;;;34.42;28.74;100393.00;10305851;28;20054;-66
2023/09/08 14:06:33;;;;;;;2.53;1.48;;;;;;;34.73;27.94;100389.91;10301842;28;20051;-66
2023/09/08 14:11:41;;;;;;;4.25;1.10;;;;;;;35.21;27.79;100388.63;10301711;28;20062;-67
2023/09/08 14:17:03;;;;;;;4.35;1.30;;;;;;;36.15;27.08;100384.34;10308608;28;20139;-67
2023/09/08 14:22:04;;;;;;;3.25;1.42;;;;;;;37.04;26.36;100374.41;10303549;28;20050;-67
2023/09/08 14:27:06;;;;;;;2.97;1.23;;;;;;;39.14;23.97;100385.03;10303875;28;20042;-68
2023/09/08 14:32:07;;;;;;;1.67;1.10;;;;;;;41.07;21.59;100376.31;10297644;28;20499;-62
2023/09/08 14:37:08;;;;;;;4.50;1.40;;;;;;;41.87;20.77;100376.03;10288218;28;20053;-61
2023/09/08 14:42:12;;;;;;;3.95;1.30;;;;;;;42.37;20.57;100370.00;10305145;28;20042;-61
2023/09/08 14:47:14;;;;;;;3.05;1.40;;;;;;;42.23;20.77;100367.88;10301214;28;20130;-61
2023/09/08 14:52:16;;;;;;;5.65;1.15;;;;;;;42.13;20.40;100365.78;10305480;28;20065;-61
2023/09/08 14:57:18;;;;;;;2.50;1.25;;;;;;;42.11;20.14;100366.19;10300965;28;20144;-61
2023/09/08 15:02:19;;;;;;;4.22;1.27;;;;;;;40.77;20.58;100367.88;10306043;28;20066;-61
2023/09/08 15:07:21;;;;;;;1.58;1.20;;;;;;;39.34;21.72;100361.34;10305871;28;20043;-61
2023/09/08 15:12:22;;;;;;;4.05;1.48;;;;;;;38.38;22.48;100358.00;10302324;28;20038;-62
2023/09/08 15:17:24;;;;;;;1.50;1.20;;;;;;;37.92;23.08;100357.66;10302625;28;20038;-62
2023/09/08 15:22:26;;;;;;;2.15;1.42;;;;;;;37.51;24.03;100359.75;10299590;28;20567;-61
2023/09/08 15:27:27;;;;;;;1.38;1.15;;;;;;;37.19;24.05;100354.06;10302296;28;20054;-62
2023/09/08 15:32:28;;;;;;;1.23;1.10;;;;;;;36.89;23.43;100348.75;10296221;28;20046;-67
2023/09/08 15:37:30;;;;;;;4.20;2.03;;;;;;;36.87;24.13;100344.66;10296044;28;20129;-67
2023/09/08 15:42:32;;;;;;;4.13;1.45;;;;;;;36.85;23.95;100347.84;10298093;28;20043;-66
2023/09/08 15:47:33;;;;;;;2.72;1.42;;;;;;;36.60;24.54;100355.44;10300448;28;20061;-66
2023/09/08 15:52:35;;;;;;;2.50;1.42;;;;;;;36.54;24.44;100351.25;10299287;28;20054;-65
2023/09/08 15:57:36;;;;;;;1.77;1.65;;;;;;;36.79;24.81;100348.41;10300439;28;20042;-66
2023/09/08 16:02:38;;;;;;;2.15;1.40;;;;;;;36.77;24.70;100336.75;10302080;28;20038;-66
2023/09/08 16:07:41;;;;;;;2.10;1.00;;;;;;;36.74;25.10;100343.09;10300061;28;20078;-65
2023/09/08 16:12:43;;;;;;;2.88;1.40;;;;;;;36.77;24.87;100343.19;10297508;28;20042;-65
2023/09/08 16:17:44;;;;;;;2.40;1.60;;;;;;;36.84;25.42;100340.59;10296238;28;20042;-62
2023/09/08 16:22:46;;;;;;;2.67;1.33;;;;;;;36.84;25.27;100334.97;10296974;28;20051;-63
2023/09/08 16:27:47;;;;;;;3.03;1.48;;;;;;;36.90;25.43;100336.34;10292420;28;20050;-66
2023/09/08 16:32:49;;;;;;;3.55;2.00;;;;;;;36.79;25.40;100334.41;10298199;28;20524;-65
2023/09/08 16:37:50;;;;;;;2.40;1.50;;;;;;;36.85;25.07;100333.00;10297908;28;20048;-65
2023/09/08 16:42:52;;;;;;;1.83;1.17;;;;;;;36.79;25.60;100337.22;10297842;28;20054;-62
2023/09/08 16:47:53;;;;;;;1.70;1.55;;;;;;;36.65;25.58;100340.41;10296669;28;20269;-59
2023/09/08 16:52:55;;;;;;;3.58;1.75;;;;;;;36.24;25.91;100345.91;10298672;28;20081;-58
2023/09/08 16:57:56;;;;;;;2.25;1.42;;;;;;;35.65;26.45;100349.03;10297121;28;20051;-61
2023/09/08 17:02:58;;;;;;;5.60;1.70;;;;;;;35.08;27.20;100340.19;10296133;28;20053;-59
2023/09/08 17:07:59;;;;;;;2.85;1.90;;;;;;;34.53;27.95;100335.66;10300442;28;20050;-59
2023/09/08 17:13:01;;;;;;;4.35;2.13;;;;;;;33.94;28.68;100333.63;10300748;28;20053;-60
2023/09/08 17:18:02;;;;;;;8.68;2.75;;;;;;;33.38;29.08;100336.38;10298612;28;20117;-60
2023/09/08 17:23:05;;;;;;;5.40;2.00;;;;;;;32.89;30.40;100328.16;10295651;28;20109;-60
2023/09/08 17:28:07;;;;;;;8.23;4.13;;;;;;;32.43;30.61;100343.47;10290187;28;20080;-60
2023/09/08 17:33:09;;;;;;;4.82;2.75;;;;;;;31.99;31.55;100340.53;10293288;28;20119;-62
2023/09/08 17:38:11;;;;;;;8.00;2.63;;;;;;;31.58;33.00;100338.84;10286077;28;20051;-61
2023/09/08 17:43:13;;;;;;;4.18;2.53;;;;;;;31.17;33.90;100348.16;10292501;28;20061;-60
2023/09/08 17:48:14;;;;;;;5.80;3.33;;;;;;;30.82;34.99;100347.00;10298310;28;20054;-62
2023/09/08 17:53:16;;;;;;;3.55;2.50;;;;;;;30.43;35.30;100348.38;10284830;28;20201;-60
2023/09/08 17:58:17;;;;;;;9.52;3.17;;;;;;;30.03;36.14;100356.38;10282182;28;20499;-60
2023/09/08 18:03:18;;;;;;;4.72;2.60;;;;;;;29.64;37.42;100358.44;10283269;28;20554;-61
2023/09/08 18:08:23;;;;;;;3.67;2.75;;;;;;;29.32;38.13;100353.72;10306160;28;20132;-60
2023/09/08 18:13:24;;;;;;;7.15;2.58;;;;;;;28.93;38.94;100357.63;10310067;28;20054;-63
2023/09/08 18:18:26;;;;;;;4.07;2.70;;;;;;;28.62;40.28;100354.44;10290093;28;20128;-61
2023/09/08 18:23:27;;;;;;;5.32;2.40;;;;;;;28.26;40.55;100352.91;10303872;28;20050;-61
2023/09/08 18:28:29;;;;;;;9.10;2.95;;;;;;;27.94;41.59;100355.47;10306691;28;20069;-61
2023/09/08 18:33:30;;;;;;;11.80;3.47;;;;;;;27.60;42.70;100365.41;10288616;28;20653;-59
2023/09/08 18:38:33;;;;;;;7.57;2.85;;;;;;;27.28;43.13;100365.97;10304046;28;20052;-60
2023/09/08 18:43:34;;;;;;;8.20;3.03;;;;;;;27.00;43.79;100370.28;10305252;28;20062;-59
2023/09/08 18:48:37;;;;;;;5.80;2.47;;;;;;;26.73;44.77;100370.69;10303561;28;20058;-60
2023/09/08 18:53:38;;;;;;;6.03;3.25;;;;;;;26.52;45.40;100363.31;10302470;28;20042;-60
2023/09/08 18:58:40;;;;;;;5.20;3.03;;;;;;;26.28;45.94;100370.56;10302939;28;20054;-59
2023/09/08 19:03:41;;;;;;;6.93;2.90;;;;;;;25.98;46.82;100372.28;10301167;28;20407;-60
2023/09/08 19:08:43;;;;;;;4.93;2.67;;;;;;;25.71;47.00;100378.91;10303119;28;20085;-60
2023/09/08 19:13:44;;;;;;;6.57;3.42;;;;;;;25.55;48.15;100382.75;10299646;28;20045;-60
2023/09/08 19:18:46;;;;;;;6.13;3.97;;;;;;;25.27;48.96;100384.94;10299459;28;20034;-60
2023/09/08 19:23:49;;;;;;;9.20;3.63;;;;;;;24.88;49.37;100382.66;10298820;28;20519;-60
2023/09/08 19:28:51;;;;;;;5.13;3.78;;;;;;;24.69;50.03;100378.72;10281350;28;20046;-60
2023/09/08 19:33:52;;;;;;;7.88;3.90;;;;;;;24.68;50.59;100380.63;10298536;28;20050;-60
2023/09/08 19:38:54;;;;;;;4.45;3.03;;;;;;;24.60;50.57;100383.09;10300663;28;20121;-59
2023/09/08 19:43:55;;;;;;;10.18;3.80;;;;;;;24.47;50.88;100385.19;10296112;28;20042;-62
2023/09/08 19:48:57;;;;;;;8.15;3.75;;;;;;;24.23;51.25;100392.19;10301991;28;20046;-60
2023/09/08 19:53:59;;;;;;;6.97;3.75;;;;;;;23.97;52.22;100393.97;10287846;28;20132;-62
2023/09/08 19:59:00;;;;;;;5.22;3.00;;;;;;;23.76;52.64;100391.88;10300743;28;20064;-60
2023/09/08 20:04:04;;;;;;;5.60;3.55;;;;;;;23.60;52.72;100400.22;10303076;28;20116;-61
2023/09/08 20:09:10;;;;;;;6.57;3.75;;;;;;;23.44;53.11;100397.38;10301826;28;20054;-61
2023/09/08 20:14:12;;;;;;;5.43;3.10;;;;;;;23.38;52.93;100386.59;10297710;28;20042;-60
2023/09/08 20:19:14;;;;;;;7.32;3.85;;;;;;;23.31;53.32;100384.09;10299674;28;20054;-61
2023/09/08 20:24:15;;;;;;;5.28;3.33;;;;;;;23.22;53.59;100393.84;10299406;28;20077;-62
2023/09/08 20:29:18;;;;;;;6.25;3.70;;;;;;;23.20;53.72;100390.53;10298933;28;20056;-62
2023/09/08 20:34:19;;;;;;;6.78;3.83;;;;;;;23.11;53.87;100396.50;10300209;28;20945;-62
2023/09/08 20:39:21;;;;;;;5.30;3.47;;;;;;;23.05;53.90;100403.00;10296926;28;20042;-62
2023/09/08 20:44:22;;;;;;;5.00;3.15;;;;;;;22.99;54.02;100392.22;10302348;28;20047;-63
2023/09/08 20:49:24;;;;;;;5.70;4.18;;;;;;;22.83;54.30;100392.06;10300650;28;20583;-63
2023/09/08 20:54:25;;;;;;;5.53;3.63;;;;;;;22.65;54.90;100404.19;10300869;28;20059;-64
2023/09/08 20:59:27;;;;;;;4.93;3.20;;;;;;;22.60;54.79;100395.88;10288413;28;20050;-66
2023/09/08 21:04:30;;;;;;;4.28;3.20;;;;;;;22.55;55.21;100401.28;10295892;28;20434;-65
2023/09/08 21:09:31;;;;;;;7.10;3.58;;;;;;;22.43;55.25;100398.66;10301068;28;20496;-64
2023/09/08 21:14:33;;;;;;;5.50;3.60;;;;;;;22.31;55.69;100393.28;10300983;28;20102;-63
2023/09/08 21:19:34;;;;;;;13.05;5.43;;;;;;;22.13;55.96;100396.31;10305307;28;20050;-66
2023/09/08 21:24:36;;;;;;;8.75;3.75;;;;;;;22.07;56.37;100397.31;10303215;28;20038;-61
2023/09/08 21:29:37;;;;;;;6.72;4.10;;;;;;;22.01;56.38;100393.66;10308588;28;20049;-62
2023/09/08 21:34:39;;;;;;;5.03;3.58;;;;;;;21.90;56.54;100395.44;10304168;28;20138;-61
2023/09/08 21:39:40;;;;;;;7.07;3.60;;;;;;;21.68;57.37;100397.25;10304144;28;20046;-62
2023/09/08 21:44:42;;;;;;;7.97;3.80;;;;;;;21.61;57.36;100391.13;10308010;28;20039;-63
2023/09/08 21:49:43;;;;;;;7.15;4.05;;;;;;;21.56;57.57;100392.69;10307810;28;20407;-64
2023/09/08 21:54:45;;;;;;;5.00;3.78;;;;;;;21.50;57.37;100390.94;10311089;28;20051;-61
2023/09/08 21:59:46;;;;;;;7.78;4.50;;;;;;;21.37;57.59;100393.97;10306975;28;20402;-61
2023/09/08 22:04:48;;;;;;;6.72;4.25;;;;;;;21.29;58.20;100388.91;10306279;28;20136;-60
2023/09/08 22:09:52;;;;;;;4.68;3.55;;;;;;;21.14;58.06;100384.81;10299841;28;20047;-61
2023/09/08 22:14:55;;;;;;;5.30;4.20;;;;;;;21.05;58.76;100383.56;10305135;28;20052;-61
2023/09/08 22:19:56;;;;;;;5.43;3.80;;;;;;;20.99;58.74;100382.63;10305836;28;20086;-61
2023/09/08 22:24:58;;;;;;;7.78;3.63;;;;;;;20.99;58.61;100387.25;10301931;28;20558;-62
2023/09/08 22:30:00;;;;;;;6.93;3.83;;;;;;;20.87;58.70;100391.94;10306432;28;20054;-60
2023/09/08 22:35:04;;;;;;;5.15;3.13;;;;;;;20.84;59.20;100395.16;10302727;28;20513;-60
2023/09/08 22:40:05;;;;;;;9.30;3.78;;;;;;;20.75;59.04;100383.78;10304240;28;20097;-59
2023/09/08 22:45:08;;;;;;;5.07;3.33;;;;;;;20.71;59.56;100386.16;10301543;28;20098;-60
2023/09/08 22:50:11;;;;;;;4.78;3.50;;;;;;;20.65;59.68;100383.56;10302103;28;20070;-60
2023/09/08 22:55:13;;;;;;;4.05;3.42;;;;;;;20.59;59.18;100379.91;10300380;28;20046;-60
2023/09/08 23:00:25;;;;;;;7.75;4.13;;;;;;;20.56;59.59;100383.09;10300141;28;20413;-60
2023/09/08 23:05:27;;;;;;;6.18;3.58;;;;;;;20.49;59.61;100379.66;10301916;28;20057;-59
2023/09/08 23:10:28;;;;;;;7.47;4.32;;;;;;;20.42;59.87;100382.53;10297319;28;20053;-61